createdAt,value
2023-02-18T00:02:07.134Z,47.00
2023-02-18T00:04:35.859Z,42.33
2023-02-18T00:07:04.447Z,39.00
2023-02-18T00:09:33.837Z,45.50
2023-02-18T00:12:02.484Z,46.67
2023-02-18T00:14:31.107Z,39.00
2023-02-18T00:17:00.531Z,33.67
2023-02-18T00:19:33.051Z,45.67
2023-02-18T00:22:02.591Z,46.00
2023-02-18T00:24:31.250Z,47.33
2023-02-18T00:26:59.867Z,41.00
2023-02-18T00:29:29.376Z,39.00
2023-02-18T00:31:58.921Z,48.33
2023-02-18T00:34:27.759Z,43.33
2023-02-18T00:36:56.967Z,49.33
2023-02-18T00:39:26.443Z,40.33
2023-02-18T00:41:55.053Z,42.33
2023-02-18T00:44:23.738Z,40.67
2023-02-18T00:46:53.468Z,41.00
2023-02-18T00:49:22.064Z,34.00
2023-02-18T00:51:51.447Z,30.00
2023-02-18T00:54:20.054Z,39.67
2023-02-18T00:56:48.798Z,36.00
2023-02-18T00:59:17.534Z,36.33
2023-02-18T01:01:46.187Z,30.00
2023-02-18T01:04:14.910Z,30.00
2023-02-18T01:06:43.606Z,29.33
2023-02-18T01:09:13.064Z,34.67
2023-02-18T01:11:41.688Z,25.00
2023-02-18T01:14:10.307Z,21.00
2023-02-18T01:16:38.938Z,23.00
2023-02-18T01:19:06.633Z,8.00
2023-02-18T01:21:34.366Z,7.00
2023-02-18T01:24:02.060Z,5.00
2023-02-18T01:26:32.659Z,5.00
2023-02-18T01:29:00.319Z,3.50
2023-02-18T01:31:28.068Z,6.00
2023-02-18T01:33:57.585Z,9.00
2023-02-18T01:36:25.274Z,5.00
2023-02-18T01:38:53.816Z,4.50
2023-02-18T01:41:22.043Z,5.00
2023-02-18T01:43:49.726Z,4.00
2023-02-18T01:46:22.765Z,4.00
2023-02-18T01:48:52.021Z,4.50
2023-02-18T01:52:00.910Z,4.00
2023-02-18T01:54:45.002Z,2.25
2023-02-18T01:57:35.417Z,3.00
2023-02-18T02:00:17.981Z,5.00
2023-02-18T02:02:49.565Z,3.00
2023-02-18T02:05:20.358Z,4.00
2023-02-18T02:07:52.713Z,3.00
2023-02-18T02:10:21.252Z,6.00
2023-02-18T02:13:26.878Z,6.00
2023-02-18T02:16:50.027Z,5.00
2023-02-18T02:19:51.950Z,2.00
2023-02-18T02:22:41.360Z,2.00
2023-02-18T02:25:54.856Z,1.00
2023-02-18T02:29:19.384Z,2.00
2023-02-18T02:32:29.710Z,1.00
2023-02-18T02:35:09.956Z,2.50
2023-02-18T02:37:54.631Z,3.00
2023-02-18T02:40:47.503Z,2.50
2023-02-18T02:43:46.777Z,1.00
2023-02-18T02:46:40.609Z,2.00
2023-02-18T02:49:55.110Z,1.00
2023-02-18T02:52:50.237Z,1.00
2023-02-18T02:55:17.948Z,2.00
2023-02-18T02:57:52.656Z,0.50
2023-02-18T03:01:18.639Z,1.00
2023-02-18T03:04:43.561Z,3.00
2023-02-18T03:07:44.746Z,0.00
2023-02-18T03:10:50.949Z,4.50
2023-02-18T03:14:05.547Z,2.00
2023-02-18T03:17:03.768Z,2.00
2023-02-18T03:19:43.456Z,3.00
2023-02-18T03:22:19.108Z,5.00
2023-02-18T03:24:55.224Z,4.00
2023-02-18T03:27:53.357Z,4.00
2023-02-18T03:30:53.678Z,1.00
2023-02-18T03:33:33.872Z,2.00
2023-02-18T03:36:02.638Z,1.00
2023-02-18T03:38:43.022Z,2.00
2023-02-18T03:41:11.294Z,4.50
2023-02-18T03:43:41.811Z,2.00
2023-02-18T03:46:10.566Z,1.00
2023-02-18T03:48:38.468Z,1.00
2023-02-18T03:51:07.011Z,1.75
2023-02-18T03:53:34.630Z,3.00
2023-02-18T03:56:02.249Z,2.00
2023-02-18T03:58:30.755Z,2.00
2023-02-18T04:00:58.509Z,1.00
2023-02-18T04:03:26.225Z,4.00
2023-02-18T04:05:53.810Z,0.00
2023-02-18T04:08:21.479Z,1.00
2023-02-18T04:10:49.945Z,0.50
2023-02-18T04:13:18.587Z,1.00
2023-02-18T04:15:48.815Z,0.00
2023-02-18T04:18:16.440Z,1.00
2023-02-18T04:20:44.510Z,2.00
2023-02-18T04:23:12.432Z,2.00
2023-02-18T04:25:40.239Z,1.00
2023-02-18T04:28:08.251Z,2.00
2023-02-18T04:30:36.031Z,1.00
2023-02-18T04:33:03.723Z,1.00
2023-02-18T04:35:31.456Z,0.00
2023-02-18T04:37:59.909Z,1.00
2023-02-18T04:40:30.749Z,1.00
2023-02-18T04:43:02.717Z,3.00
2023-02-18T04:45:31.543Z,1.00
2023-02-18T04:47:59.353Z,1.00
2023-02-18T04:50:27.154Z,2.00
2023-02-18T04:52:54.802Z,1.00
2023-02-18T04:55:22.466Z,2.00
2023-02-18T04:57:50.163Z,5.00
2023-02-18T05:00:20.650Z,1.00
2023-02-18T05:02:48.956Z,1.00
2023-02-18T05:05:17.088Z,1.00
2023-02-18T05:07:44.791Z,2.00
2023-02-18T05:10:18.813Z,1.50
2023-02-18T05:12:46.531Z,1.00
2023-02-18T05:15:14.227Z,4.00
2023-02-18T05:17:41.888Z,2.00
2023-02-18T05:20:10.770Z,2.00
2023-02-18T05:22:39.146Z,3.00
2023-02-18T05:25:07.655Z,2.50
2023-02-18T05:27:35.374Z,2.00
2023-02-18T05:30:03.262Z,4.00
2023-02-18T05:32:30.949Z,2.00
2023-02-18T05:34:58.595Z,2.00
2023-02-18T05:37:26.266Z,1.00
2023-02-18T05:39:53.942Z,4.00
2023-02-18T05:42:21.642Z,6.00
2023-02-18T05:44:49.484Z,1.00
2023-02-18T05:47:17.414Z,2.00
2023-02-18T05:49:45.349Z,2.00
2023-02-18T05:52:13.112Z,2.00
2023-02-18T05:54:41.001Z,2.00
2023-02-18T05:57:08.891Z,2.00
2023-02-18T05:59:36.564Z,3.00
2023-02-18T06:02:05.125Z,1.50
2023-02-18T06:04:33.788Z,2.00
2023-02-18T06:07:01.551Z,2.00
2023-02-18T06:09:30.095Z,1.00
2023-02-18T06:11:58.714Z,0.25
2023-02-18T06:14:26.573Z,1.00
2023-02-18T06:16:54.222Z,2.00
2023-02-18T06:19:21.948Z,8.00
2023-02-18T06:21:49.726Z,3.00
2023-02-18T06:24:17.379Z,6.00
2023-02-18T06:26:45.158Z,3.00
2023-02-18T06:29:12.867Z,7.00
2023-02-18T06:31:44.127Z,5.00
2023-02-18T06:34:11.811Z,5.00
2023-02-18T06:36:40.551Z,5.00
2023-02-18T06:39:08.780Z,3.00
2023-02-18T06:41:36.579Z,21.00
2023-02-18T06:44:04.870Z,4.00
2023-02-18T06:46:32.604Z,3.00
2023-02-18T06:49:00.544Z,4.50
2023-02-18T06:51:28.249Z,3.50
2023-02-18T06:53:55.899Z,3.00
2023-02-18T06:56:27.115Z,3.29
2023-02-18T06:58:54.825Z,4.00
2023-02-18T07:01:23.272Z,2.75
2023-02-18T07:03:51.750Z,3.00
2023-02-18T07:06:19.428Z,4.00
2023-02-18T07:08:47.105Z,4.00
2023-02-18T07:11:14.752Z,2.00
2023-02-18T07:13:42.407Z,3.00
2023-02-18T07:16:10.278Z,4.00
2023-02-18T07:18:38.163Z,3.00
2023-02-18T07:21:06.008Z,9.00
2023-02-18T07:23:33.666Z,4.00
2023-02-18T07:26:11.700Z,4.00
2023-02-18T07:28:40.072Z,1.00
2023-02-18T07:31:08.784Z,0.50
2023-02-18T07:33:36.773Z,2.50
2023-02-18T07:36:05.648Z,6.00
2023-02-18T07:38:33.432Z,2.00
2023-02-18T07:41:01.317Z,0.00
2023-02-18T07:43:29.103Z,3.50
2023-02-18T07:45:56.787Z,3.00
2023-02-18T07:48:24.641Z,2.50
2023-02-18T07:50:52.303Z,3.00
2023-02-18T07:53:20.063Z,3.00
2023-02-18T07:55:50.421Z,3.50
2023-02-18T07:58:32.262Z,3.00
2023-02-18T08:01:02.318Z,3.00
2023-02-18T08:03:33.207Z,1.50
2023-02-18T08:06:04.296Z,2.00
2023-02-18T08:08:35.188Z,3.00
2023-02-18T08:11:18.406Z,2.00
2023-02-18T08:13:48.470Z,2.00
2023-02-18T08:16:19.618Z,2.50
2023-02-18T08:18:48.642Z,2.00
2023-02-18T08:21:20.316Z,2.00
2023-02-18T08:23:48.728Z,3.00
2023-02-18T08:26:17.095Z,2.00
2023-02-18T08:28:46.771Z,2.00
2023-02-18T08:31:27.736Z,2.00
2023-02-18T08:33:59.060Z,3.00
2023-02-18T08:36:28.180Z,3.00
2023-02-18T08:38:56.066Z,5.00
2023-02-18T08:41:24.060Z,3.00
2023-02-18T08:43:51.738Z,6.50
2023-02-18T08:46:31.526Z,3.00
2023-02-18T08:49:03.973Z,6.00
2023-02-18T08:51:31.943Z,6.00
2023-02-18T08:53:59.728Z,4.50
2023-02-18T08:56:27.672Z,1.00
2023-02-18T08:58:55.377Z,5.50
2023-02-18T09:01:23.151Z,2.00
2023-02-18T09:03:52.674Z,4.00
2023-02-18T09:06:24.143Z,5.86
2023-02-18T09:08:53.754Z,8.00
2023-02-18T09:11:21.663Z,3.00
2023-02-18T09:13:49.271Z,4.00
2023-02-18T09:16:19.522Z,3.00
2023-02-18T09:18:49.452Z,5.00
2023-02-18T09:21:20.844Z,10.00
2023-02-18T09:23:51.409Z,6.40
2023-02-18T09:26:26.328Z,2.00
2023-02-18T09:28:57.231Z,5.00
2023-02-18T09:31:28.565Z,5.00
2023-02-18T09:34:02.376Z,7.50
2023-02-18T09:36:30.540Z,8.50
2023-02-18T09:38:59.448Z,6.00
2023-02-18T09:41:44.324Z,3.00
2023-02-18T09:44:45.492Z,3.50
2023-02-18T09:47:29.977Z,4.00
2023-02-18T09:50:27.250Z,3.00
2023-02-18T09:52:55.283Z,4.00
2023-02-18T09:55:42.362Z,5.00
2023-02-18T09:58:28.317Z,10.00
2023-02-18T10:01:38.504Z,7.00
2023-02-18T10:04:23.930Z,1.00
2023-02-18T10:06:55.391Z,3.00
2023-02-18T10:09:42.122Z,3.00
2023-02-18T10:12:20.653Z,2.00
2023-02-18T10:15:01.471Z,2.50
2023-02-18T10:17:34.342Z,2.00
2023-02-18T10:20:07.808Z,1.00
2023-02-18T10:22:38.561Z,1.00
2023-02-18T10:25:07.875Z,3.00
2023-02-18T10:27:39.630Z,3.00
2023-02-18T10:30:16.011Z,2.00
2023-02-18T10:32:47.636Z,2.00
2023-02-18T10:35:24.055Z,2.00
2023-02-18T10:38:07.664Z,5.00
2023-02-18T10:41:00.137Z,3.50
2023-02-18T10:44:04.835Z,5.00
2023-02-18T10:46:44.294Z,7.00
2023-02-18T10:49:41.845Z,5.00
2023-02-18T10:52:19.107Z,7.50
2023-02-18T10:55:19.085Z,2.00
2023-02-18T10:57:57.871Z,6.00
2023-02-18T11:00:28.183Z,5.00
2023-02-18T11:03:20.197Z,7.00
2023-02-18T11:05:56.276Z,3.00
2023-02-18T11:08:43.067Z,3.00
2023-02-18T11:11:32.714Z,1.00
2023-02-18T11:14:05.154Z,4.50
2023-02-18T11:16:45.751Z,2.00
2023-02-18T11:19:35.621Z,4.50
2023-02-18T11:22:21.627Z,3.50
2023-02-18T11:24:54.390Z,4.00
2023-02-18T11:27:30.760Z,4.50
2023-02-18T11:30:07.381Z,3.50
2023-02-18T11:32:37.774Z,5.00
2023-02-18T11:35:06.831Z,1.50
2023-02-18T11:37:38.412Z,3.50
2023-02-18T11:40:07.767Z,3.00
2023-02-18T11:42:35.638Z,6.00
2023-02-18T11:45:05.822Z,9.60
2023-02-18T11:47:38.197Z,5.00
2023-02-18T11:50:17.727Z,6.50
2023-02-18T11:52:50.868Z,23.00
2023-02-18T11:55:26.078Z,3.00
2023-02-18T11:58:05.303Z,3.00
2023-02-18T12:00:57.415Z,9.00
2023-02-18T12:03:57.255Z,18.00
2023-02-18T12:07:02.441Z,6.00
2023-02-18T12:09:43.682Z,4.00
2023-02-18T12:12:36.599Z,4.00
2023-02-18T12:15:04.603Z,6.00
2023-02-18T12:18:33.169Z,12.20
2023-02-18T12:21:36.811Z,2.00
2023-02-18T12:24:42.066Z,8.00
2023-02-18T12:27:48.533Z,10.14
2023-02-18T12:31:07.633Z,6.00
2023-02-18T12:34:44.026Z,55.33
2023-02-18T12:38:15.630Z,20.33
2023-02-18T12:41:01.631Z,13.00
2023-02-18T12:43:58.303Z,9.00
2023-02-18T12:47:27.168Z,6.00
2023-02-18T12:49:57.718Z,8.00
2023-02-18T12:53:14.804Z,4.50
2023-02-18T12:56:20.028Z,3.00
2023-02-18T13:00:04.477Z,6.00
2023-02-18T13:03:09.955Z,4.00
2023-02-18T13:06:42.367Z,7.00
2023-02-18T13:09:42.791Z,4.00
2023-02-18T13:12:35.167Z,7.00
2023-02-18T13:15:23.895Z,9.60
2023-02-18T13:17:58.292Z,5.50
2023-02-18T13:20:46.935Z,6.00
2023-02-18T13:23:38.891Z,6.00
2023-02-18T13:26:12.417Z,6.50
2023-02-18T13:29:25.026Z,9.00
2023-02-18T13:32:53.465Z,11.67
2023-02-18T13:36:11.547Z,6.71
2023-02-18T13:39:11.589Z,3.00
2023-02-18T13:41:43.770Z,3.00
2023-02-18T13:44:23.285Z,5.50
2023-02-18T13:46:58.252Z,6.00
2023-02-18T13:49:34.651Z,5.00
2023-02-18T13:52:05.571Z,7.40
2023-02-18T13:54:59.471Z,4.50
2023-02-18T13:57:28.919Z,4.00
2023-02-18T14:00:06.303Z,2.00
2023-02-18T14:02:36.891Z,8.50
2023-02-18T14:05:24.577Z,2.50
2023-02-18T14:08:33.606Z,1.33
2023-02-18T14:11:40.718Z,3.50
2023-02-18T14:14:28.016Z,3.00
2023-02-18T14:17:20.557Z,1.00
2023-02-18T14:20:02.330Z,3.00
2023-02-18T14:22:51.576Z,2.00
2023-02-18T14:25:40.034Z,4.00
2023-02-18T14:28:36.214Z,8.00
2023-02-18T14:31:30.985Z,2.00
2023-02-18T14:34:25.555Z,1.00
2023-02-18T14:37:17.427Z,2.00
2023-02-18T14:40:26.332Z,4.60
2023-02-18T14:43:46.133Z,5.00
2023-02-18T14:46:54.884Z,5.20
2023-02-18T14:49:42.367Z,2.00
2023-02-18T14:52:39.308Z,12.00
2023-02-18T14:55:17.145Z,4.00
2023-02-18T14:57:55.113Z,1.00
2023-02-18T15:00:32.482Z,9.80
2023-02-18T15:03:02.558Z,11.50
2023-02-18T15:05:38.156Z,7.20
2023-02-18T15:08:23.016Z,11.50
2023-02-18T15:11:09.213Z,16.67
2023-02-18T15:13:44.470Z,13.67
2023-02-18T15:16:43.278Z,13.33
2023-02-18T15:19:21.340Z,14.33
2023-02-18T15:21:53.657Z,16.00
2023-02-18T15:24:39.006Z,37.33
2023-02-18T15:27:25.868Z,25.33
2023-02-18T15:30:25.361Z,25.00
2023-02-18T15:33:00.299Z,37.33
2023-02-18T15:35:33.509Z,42.00
2023-02-18T15:38:04.644Z,35.00
2023-02-18T15:40:38.244Z,60.00
2023-02-18T15:43:08.567Z,49.33
2023-02-18T15:45:44.222Z,48.00
2023-02-18T15:48:43.188Z,55.50
2023-02-18T15:51:18.099Z,56.33
2023-02-18T15:53:53.038Z,60.00
2023-02-18T15:56:39.273Z,59.50
2023-02-18T15:59:28.377Z,62.33
2023-02-18T16:02:19.859Z,61.00
2023-02-18T16:04:58.445Z,68.00
2023-02-18T16:07:32.235Z,63.67
2023-02-18T16:10:36.341Z,63.67
2023-02-18T16:13:06.786Z,61.33
2023-02-18T16:15:44.379Z,66.33
2023-02-18T16:18:41.433Z,65.33
2023-02-18T16:21:19.100Z,65.33
2023-02-18T16:24:00.462Z,65.33
2023-02-18T16:26:44.698Z,63.33
2023-02-18T16:29:45.888Z,70.33
2023-02-18T16:32:15.437Z,69.33
2023-02-18T16:34:44.150Z,71.67
2023-02-18T16:37:32.228Z,65.67
2023-02-18T16:40:01.877Z,66.75
2023-02-18T16:42:31.101Z,72.00
2023-02-18T16:45:00.626Z,77.75
2023-02-18T16:47:30.096Z,74.75
2023-02-18T16:50:00.017Z,73.33
2023-02-18T16:52:29.441Z,76.50
2023-02-18T16:54:58.868Z,79.00
2023-02-18T16:57:27.493Z,74.33
2023-02-18T16:59:56.896Z,76.50
2023-02-18T17:02:26.870Z,78.00
2023-02-18T17:04:57.558Z,99.00
2023-02-18T17:07:27.173Z,83.33
2023-02-18T17:09:57.592Z,108.50
2023-02-18T17:12:27.286Z,89.00
2023-02-18T17:14:56.809Z,86.25
2023-02-18T17:17:28.023Z,81.00
2023-02-18T17:19:57.471Z,76.00
2023-02-18T17:22:26.912Z,78.25
2023-02-18T17:24:54.644Z,83.00
2023-02-18T17:27:24.186Z,81.67
2023-02-18T17:29:53.785Z,80.67
2023-02-18T17:32:23.297Z,89.25
2023-02-18T17:34:51.030Z,96.00
2023-02-18T17:37:20.469Z,75.00
2023-02-18T17:39:49.996Z,85.75
2023-02-18T17:42:21.279Z,84.75
2023-02-18T17:44:50.828Z,86.00
2023-02-18T17:47:18.691Z,100.00
2023-02-18T17:49:48.319Z,85.25
2023-02-18T17:52:36.367Z,105.00
2023-02-18T17:55:26.763Z,105.00
2023-02-18T17:57:58.301Z,106.50
2023-02-18T18:00:40.555Z,85.67
2023-02-18T18:03:14.937Z,94.25
2023-02-18T18:05:49.272Z,89.00
2023-02-18T18:08:20.024Z,83.00
2023-02-18T18:10:57.279Z,87.00
2023-02-18T18:13:32.454Z,90.67
2023-02-18T18:16:02.171Z,83.00
2023-02-18T18:18:29.932Z,86.00
2023-02-18T18:21:01.939Z,89.67
2023-02-18T18:23:35.715Z,83.25
2023-02-18T18:26:05.518Z,88.33
2023-02-18T18:28:37.531Z,90.67
2023-02-18T18:31:11.162Z,83.00
2023-02-18T18:33:41.680Z,86.00
2023-02-18T18:36:11.487Z,86.33
2023-02-18T18:38:41.233Z,84.00
2023-02-18T18:41:22.949Z,89.33
2023-02-18T18:43:52.622Z,86.75
2023-02-18T18:46:20.446Z,87.50
2023-02-18T18:48:50.201Z,90.67
2023-02-18T18:51:28.988Z,84.00
2023-02-18T18:53:58.595Z,85.50
2023-02-18T18:56:26.371Z,85.00
2023-02-18T18:58:56.220Z,82.00
2023-02-18T19:01:27.357Z,80.33
2023-02-18T19:03:57.169Z,79.75
2023-02-18T19:06:26.727Z,84.75
2023-02-18T19:08:57.094Z,83.50
2023-02-18T19:11:26.622Z,82.25
2023-02-18T19:13:54.438Z,109.50
2023-02-18T19:16:38.805Z,93.00
2023-02-18T19:19:11.701Z,85.67
2023-02-18T19:21:41.901Z,89.00
2023-02-18T19:24:11.474Z,86.67
2023-02-18T19:26:41.084Z,93.33
2023-02-18T19:29:10.666Z,90.00
2023-02-18T19:31:40.425Z,95.33
2023-02-18T19:34:12.910Z,89.33
2023-02-18T19:36:45.142Z,82.00
2023-02-18T19:39:14.734Z,88.00
2023-02-18T19:41:44.336Z,88.33
2023-02-18T19:44:13.847Z,88.50
2023-02-18T19:46:43.405Z,87.75
2023-02-18T19:49:11.120Z,98.50
2023-02-18T19:51:40.683Z,88.33
2023-02-18T19:54:13.042Z,80.33
2023-02-18T19:56:43.730Z,85.00
2023-02-18T19:59:13.226Z,86.25
2023-02-18T20:01:42.745Z,88.00
2023-02-18T20:04:12.388Z,84.67
2023-02-18T20:06:41.898Z,86.00
2023-02-18T20:09:09.659Z,88.00
2023-02-18T20:11:39.170Z,84.50
2023-02-18T20:14:08.798Z,93.67
2023-02-18T20:16:38.416Z,87.33
2023-02-18T20:19:07.956Z,79.67
2023-02-18T20:21:37.505Z,93.25
2023-02-18T20:24:10.652Z,82.33
2023-02-18T20:26:40.157Z,84.75
2023-02-18T20:29:09.877Z,81.33
2023-02-18T20:31:39.677Z,74.67
2023-02-18T20:34:10.888Z,76.00
2023-02-18T20:36:39.659Z,75.33
2023-02-18T20:39:16.172Z,75.33
2023-02-18T20:41:48.443Z,68.33
2023-02-18T20:44:20.834Z,66.67
2023-02-18T20:46:50.854Z,65.67
2023-02-18T20:49:22.395Z,61.00
2023-02-18T20:51:51.968Z,60.00
2023-02-18T20:54:21.575Z,63.00
2023-02-18T20:56:53.092Z,69.33
2023-02-18T20:59:22.642Z,67.00
2023-02-18T21:01:51.337Z,68.00
2023-02-18T21:04:22.916Z,72.67
2023-02-18T21:06:51.651Z,67.33
2023-02-18T21:09:21.502Z,69.67
2023-02-18T21:11:51.061Z,72.00
2023-02-18T21:14:20.661Z,58.67
2023-02-18T21:16:50.162Z,56.67
2023-02-18T21:19:19.837Z,60.00
2023-02-18T21:21:49.343Z,58.33
2023-02-18T21:24:18.851Z,58.33
2023-02-18T21:26:47.554Z,61.33
2023-02-18T21:29:17.314Z,60.00
2023-02-18T21:31:46.955Z,56.33
2023-02-18T21:34:17.381Z,57.00
2023-02-18T21:36:46.086Z,65.67
2023-02-18T21:39:15.636Z,56.00
2023-02-18T21:41:45.162Z,57.67
2023-02-18T21:44:14.683Z,62.33
2023-02-18T21:46:44.296Z,53.67
2023-02-18T21:49:14.021Z,52.67
2023-02-18T21:52:08.746Z,60.33
2023-02-18T21:54:47.233Z,57.33
2023-02-18T21:57:21.510Z,59.00
2023-02-18T21:59:51.741Z,62.33
2023-02-18T22:02:29.010Z,65.33
2023-02-18T22:05:02.350Z,56.00
2023-02-18T22:07:31.849Z,54.67
2023-02-18T22:10:01.341Z,52.00
2023-02-18T22:12:32.178Z,56.75
2023-02-18T22:15:01.664Z,58.67
2023-02-18T22:17:32.238Z,62.50
2023-02-18T22:20:01.912Z,63.33
2023-02-18T22:22:32.015Z,69.50
2023-02-18T22:25:01.703Z,65.00
2023-02-18T22:27:31.179Z,62.33
2023-02-18T22:30:00.691Z,58.00
2023-02-18T22:32:32.002Z,56.00
2023-02-18T22:35:00.785Z,65.33
2023-02-18T22:37:30.262Z,60.00
2023-02-18T22:39:59.763Z,64.00
2023-02-18T22:42:29.305Z,64.67
2023-02-18T22:45:02.804Z,63.00
2023-02-18T22:47:32.355Z,61.00
2023-02-18T22:50:01.875Z,66.33
2023-02-18T22:52:31.437Z,60.00
2023-02-18T22:55:00.923Z,61.00
2023-02-18T22:57:30.432Z,57.00
2023-02-18T22:59:59.899Z,61.33
2023-02-18T23:02:28.524Z,39.00
2023-02-18T23:04:57.962Z,47.33
2023-02-18T23:07:27.337Z,44.67
2023-02-18T23:09:56.011Z,23.50
2023-02-18T23:12:24.771Z,21.00
2023-02-18T23:14:53.188Z,10.00
2023-02-18T23:17:22.634Z,9.00
2023-02-18T23:19:54.454Z,13.50
2023-02-18T23:22:33.530Z,12.80
2023-02-18T23:25:02.546Z,10.00
2023-02-18T23:27:30.693Z,9.00
2023-02-18T23:30:00.228Z,8.20
2023-02-18T23:32:32.137Z,8.43
2023-02-18T23:35:01.648Z,12.00
2023-02-18T23:37:48.034Z,12.00
2023-02-18T23:40:16.878Z,11.00
2023-02-18T23:42:44.634Z,7.00
2023-02-18T23:45:12.354Z,7.00
2023-02-18T23:47:40.111Z,6.00
2023-02-18T23:50:08.085Z,9.00
2023-02-18T23:52:37.698Z,7.00
2023-02-18T23:55:05.933Z,6.50
2023-02-18T23:57:33.655Z,7.00
